Terminal Aerodrome Forecast
Issued by NWS

Home | Current Version | Previous Version | Text Only | Print | Product List | Glossary On
Versions: 1 2 3 4 5 6 7 8 9 10 11 12 13 14
000
FTUS42 KMLB 021735
TAFISM
TAF
KISM 021735Z 0218/0318 21006KT P6SM VCTS SCT045CB SCT250
      TEMPO 0219/0221 3SM TSRA BKN030CB
     FM022200 16008KT P6SM SCT050 SCT120
     FM030300 18003KT P6SM FEW050 SCT250
     FM031400 20004KT P6SM SCT025 SCT250
      AMD NOT SKED 0303/0312=

USA.gov is the U.S. government's official web portal to all federal, state and local government web resources and services.